Time;durP1;ratioP1;P1;durP2;ratioP2;P2;SDS_P1;SDS_P2;PMS_P1;PMS_P2;Temp;Humidity;BMP_temperature;BMP_pressure;BME280_temperature;BME280_humidity;BME280_pressure;Samples;Min_cycle;Max_cycle;Signal;HPM_P1;HPM_P2
2023/12/05 00:01:35;;;;;;;5.70;4.05;;;;;;;;;;5024215;28;20097;-82
2023/12/05 00:04:01;;;;;;;6.07;4.32;;;;;;;;;;5020162;28;20100;-82
2023/12/05 00:06:27;;;;;;;7.70;5.18;;;;;;;;;;5028518;28;20046;-83
2023/12/05 00:08:53;;;;;;;5.53;4.07;;;;;;;;;;5022281;28;20026;-82
2023/12/05 00:11:19;;;;;;;7.03;3.65;;;;;;;;;;5025808;28;20038;-83
2023/12/05 00:13:45;;;;;;;5.82;4.28;;;;;;;;;;5025109;28;20025;-83
2023/12/05 00:16:12;;;;;;;8.77;4.65;;;;;;;;;;5048779;28;20018;-83
2023/12/05 00:18:38;;;;;;;8.75;4.78;;;;;;;;;;5016081;28;20029;-83
2023/12/05 00:21:05;;;;;;;6.63;4.70;;;;;;;;;;5018936;28;20034;-83
2023/12/05 00:23:31;;;;;;;9.90;5.97;;;;;;;;;;5031883;28;20056;-82
2023/12/05 00:25:57;;;;;;;8.05;5.00;;;;;;;;;;5033426;28;20030;-83
2023/12/05 00:28:23;;;;;;;5.70;4.13;;;;;;;;;;5027222;28;20053;-83
2023/12/05 00:30:49;;;;;;;7.13;4.45;;;;;;;;;;5023864;28;20050;-83
2023/12/05 00:33:16;;;;;;;8.07;5.22;;;;;;;;;;5037344;28;20022;-83
2023/12/05 00:35:42;;;;;;;6.93;4.47;;;;;;;;;;5041062;28;20022;-82
2023/12/05 00:38:08;;;;;;;8.48;4.82;;;;;;;;;;5039785;28;20086;-82
2023/12/05 00:40:34;;;;;;;5.45;3.70;;;;;;;;;;5030732;28;20022;-83
2023/12/05 00:43:01;;;;;;;5.63;4.18;;;;;;;;;;5030160;28;20035;-82
2023/12/05 00:45:27;;;;;;;6.15;3.65;;;;;;;;;;5030432;28;20096;-83
2023/12/05 00:47:53;;;;;;;6.07;3.30;;;;;;;;;;5026770;28;20090;-82
2023/12/05 00:50:20;;;;;;;4.22;3.55;;;;;;;;;;5032733;28;20013;-81
2023/12/05 00:52:46;;;;;;;5.60;2.95;;;;;;;;;;5030480;28;20025;-81
2023/12/05 00:55:12;;;;;;;3.75;2.63;;;;;;;;;;5020808;28;20030;-83
2023/12/05 00:57:38;;;;;;;4.68;2.60;;;;;;;;;;5018781;28;20030;-82
2023/12/05 01:00:09;;;;;;;4.95;3.10;;;;;;;;;;5032401;28;20018;-82
2023/12/05 01:02:35;;;;;;;4.05;2.60;;;;;;;;;;5022828;28;20018;-83
2023/12/05 01:05:02;;;;;;;4.53;2.90;;;;;;;;;;5026233;28;20026;-83
2023/12/05 01:07:28;;;;;;;3.03;2.15;;;;;;;;;;5019214;28;20115;-83
2023/12/05 01:09:54;;;;;;;4.40;3.22;;;;;;;;;;5019371;28;20095;-83
2023/12/05 01:12:21;;;;;;;4.93;3.50;;;;;;;;;;5014846;28;20026;-82
2023/12/05 01:14:47;;;;;;;7.45;4.00;;;;;;;;;;5035738;28;20021;-82
2023/12/05 01:17:13;;;;;;;5.20;3.83;;;;;;;;;;5023313;28;20544;-83
2023/12/05 01:19:39;;;;;;;6.80;3.72;;;;;;;;;;5013621;28;20036;-84
2023/12/05 01:22:05;;;;;;;8.95;5.10;;;;;;;;;;5005837;28;20409;-83
2023/12/05 01:24:31;;;;;;;6.78;4.22;;;;;;;;;;5030463;28;20018;-82
2023/12/05 01:26:57;;;;;;;7.15;4.38;;;;;;;;;;5031602;28;20052;-82
2023/12/05 01:29:23;;;;;;;5.90;4.13;;;;;;;;;;5053562;28;20068;-82
2023/12/05 01:31:50;;;;;;;6.35;3.88;;;;;;;;;;5038980;28;20022;-83
2023/12/05 01:34:16;;;;;;;4.97;3.63;;;;;;;;;;5019565;28;20104;-83
2023/12/05 01:36:42;;;;;;;5.38;3.50;;;;;;;;;;5031017;28;20025;-83
2023/12/05 01:39:12;;;;;;;5.90;3.63;;;;;;;;;;5033004;28;20033;-82
2023/12/05 01:41:38;;;;;;;4.00;3.10;;;;;;;;;;5021814;28;20026;-83
2023/12/05 01:44:04;;;;;;;5.05;3.38;;;;;;;;;;5023038;28;20026;-83
2023/12/05 01:46:31;;;;;;;5.75;3.78;;;;;;;;;;5031990;28;20065;-82
2023/12/05 01:48:58;;;;;;;4.10;2.72;;;;;;;;;;5034652;28;20014;-82
2023/12/05 01:51:24;;;;;;;4.95;3.33;;;;;;;;;;5032842;28;20022;-82
2023/12/05 01:53:51;;;;;;;4.82;2.70;;;;;;;;;;5018213;28;20053;-82
2023/12/05 01:56:18;;;;;;;3.78;2.60;;;;;;;;;;5020547;28;20019;-82
2023/12/05 01:58:45;;;;;;;3.65;2.80;;;;;;;;;;5029374;28;20030;-82
2023/12/05 02:01:15;;;;;;;4.03;2.58;;;;;;;;;;5023788;28;20034;-84
2023/12/05 02:03:41;;;;;;;3.15;2.55;;;;;;;;;;5036905;28;20125;-83
2023/12/05 02:06:08;;;;;;;3.40;2.15;;;;;;;;;;5022377;28;20034;-84
2023/12/05 02:08:34;;;;;;;2.85;2.47;;;;;;;;;;5029503;28;20018;-83
2023/12/05 02:11:00;;;;;;;3.42;2.45;;;;;;;;;;5018865;28;20115;-82
2023/12/05 02:13:26;;;;;;;2.88;2.28;;;;;;;;;;5017402;28;20022;-83
2023/12/05 02:16:00;;;;;;;5.32;2.58;;;;;;;;;;5027610;28;20125;-84
2023/12/05 02:18:29;;;;;;;3.70;2.28;;;;;;;;;;5011739;28;20026;-83
2023/12/05 02:20:58;;;;;;;3.75;2.50;;;;;;;;;;5011169;28;20089;-84
2023/12/05 02:23:24;;;;;;;3.33;2.03;;;;;;;;;;5022876;28;20088;-83
2023/12/05 02:25:58;;;;;;;3.28;2.20;;;;;;;;;;5019007;28;20083;-84
2023/12/05 02:28:27;;;;;;;3.42;2.35;;;;;;;;;;5026079;28;20036;-84
2023/12/05 02:30:53;;;;;;;2.38;2.03;;;;;;;;;;5009823;28;20026;-84
2023/12/05 02:33:19;;;;;;;3.85;2.30;;;;;;;;;;5009499;28;20041;-84
2023/12/05 02:35:46;;;;;;;1.77;1.67;;;;;;;;;;5017108;28;20030;-83
2023/12/05 02:38:19;;;;;;;2.83;2.25;;;;;;;;;;5007808;28;20109;-82
2023/12/05 02:40:49;;;;;;;4.55;2.10;;;;;;;;;;5035731;28;20059;-83
2023/12/05 02:43:19;;;;;;;3.00;2.20;;;;;;;;;;5025790;28;20081;-83
2023/12/05 02:45:48;;;;;;;3.67;2.15;;;;;;;;;;5040036;28;20025;-83
2023/12/05 02:48:15;;;;;;;3.47;2.25;;;;;;;;;;5037942;28;20128;-83
2023/12/05 02:50:41;;;;;;;2.15;1.80;;;;;;;;;;5034517;28;20017;-84
2023/12/05 02:53:07;;;;;;;2.65;2.10;;;;;;;;;;5027229;28;20085;-84
2023/12/05 02:55:33;;;;;;;3.45;1.90;;;;;;;;;;5038056;28;20028;-83
2023/12/05 02:57:59;;;;;;;2.97;1.90;;;;;;;;;;5024866;28;20034;-83
2023/12/05 03:00:25;;;;;;;4.85;2.90;;;;;;;;;;5005541;28;20093;-83
2023/12/05 03:02:51;;;;;;;4.30;2.50;;;;;;;;;;5020640;28;20052;-84
2023/12/05 03:05:18;;;;;;;4.45;2.80;;;;;;;;;;5013971;28;20026;-84
2023/12/05 03:07:44;;;;;;;4.00;2.80;;;;;;;;;;5018695;28;20065;-84
2023/12/05 03:10:10;;;;;;;3.42;2.72;;;;;;;;;;5021115;28;20136;-84
2023/12/05 03:12:36;;;;;;;4.50;3.33;;;;;;;;;;5018626;28;20022;-84
2023/12/05 03:15:03;;;;;;;4.50;2.97;;;;;;;;;;5003390;28;20034;-85
2023/12/05 03:17:29;;;;;;;4.00;2.78;;;;;;;;;;5026169;28;20515;-84
2023/12/05 03:19:55;;;;;;;5.80;2.90;;;;;;;;;;5013608;28;20028;-84
2023/12/05 03:22:21;;;;;;;2.95;2.65;;;;;;;;;;5011569;28;20026;-84
2023/12/05 03:24:48;;;;;;;4.38;2.95;;;;;;;;;;5012105;28;20057;-84
2023/12/05 03:27:14;;;;;;;4.03;2.95;;;;;;;;;;5023764;28;20056;-84
2023/12/05 03:29:40;;;;;;;6.15;3.75;;;;;;;;;;5002658;28;20503;-83
2023/12/05 03:32:06;;;;;;;4.82;2.92;;;;;;;;;;5014159;28;20113;-84
2023/12/05 03:34:32;;;;;;;2.83;2.08;;;;;;;;;;5027944;28;20040;-85
2023/12/05 03:36:59;;;;;;;3.58;2.15;;;;;;;;;;5010943;28;20469;-83
2023/12/05 03:39:25;;;;;;;3.13;2.75;;;;;;;;;;5024398;28;20117;-85
2023/12/05 03:41:51;;;;;;;2.60;2.08;;;;;;;;;;5017749;28;20022;-85
2023/12/05 03:44:17;;;;;;;2.88;2.30;;;;;;;;;;5016313;28;20040;-84
2023/12/05 03:46:43;;;;;;;2.17;1.98;;;;;;;;;;5011178;28;20048;-84
2023/12/05 03:49:09;;;;;;;2.72;2.33;;;;;;;;;;5017501;28;20030;-84
2023/12/05 03:51:35;;;;;;;1.85;1.70;;;;;;;;;;5015613;28;20038;-85
2023/12/05 03:54:01;;;;;;;2.15;1.80;;;;;;;;;;5017220;28;20101;-84
2023/12/05 03:56:28;;;;;;;2.83;1.75;;;;;;;;;;5016261;28;20080;-83
2023/12/05 03:58:54;;;;;;;1.65;1.17;;;;;;;;;;5019739;28;20114;-82
2023/12/05 04:01:20;;;;;;;2.15;1.60;;;;;;;;;;5030586;28;20042;-85
2023/12/05 04:03:46;;;;;;;3.55;1.88;;;;;;;;;;5004601;28;20026;-83
2023/12/05 04:06:22;;;;;;;3.47;2.00;;;;;;;;;;5023403;28;20338;-85
2023/12/05 04:08:49;;;;;;;2.63;1.60;;;;;;;;;;5019011;28;20085;-84
2023/12/05 04:11:15;;;;;;;2.05;1.45;;;;;;;;;;5007204;28;20105;-84
2023/12/05 04:13:41;;;;;;;2.17;1.42;;;;;;;;;;5004414;28;20042;-84
2023/12/05 04:16:07;;;;;;;2.78;1.55;;;;;;;;;;5010895;28;20453;-84
2023/12/05 04:18:34;;;;;;;2.75;1.77;;;;;;;;;;5040160;28;20037;-84
2023/12/05 04:21:00;;;;;;;1.77;1.38;;;;;;;;;;5017920;28;20437;-84
2023/12/05 04:23:26;;;;;;;1.58;1.35;;;;;;;;;;5021464;28;20450;-84
2023/12/05 04:25:52;;;;;;;2.33;1.70;;;;;;;;;;5011309;28;20029;-83
2023/12/05 04:28:18;;;;;;;1.20;1.10;;;;;;;;;;5012558;28;20094;-83
2023/12/05 04:30:44;;;;;;;1.48;1.23;;;;;;;;;;5024640;28;20399;-82
2023/12/05 04:33:10;;;;;;;1.70;1.30;;;;;;;;;;5016437;28;20022;-82
2023/12/05 04:35:37;;;;;;;1.65;1.38;;;;;;;;;;5025024;28;20029;-83
2023/12/05 04:38:03;;;;;;;1.23;1.15;;;;;;;;;;5016940;28;20396;-78
2023/12/05 04:40:29;;;;;;;1.55;1.30;;;;;;;;;;5020181;28;20101;-85
2023/12/05 04:42:56;;;;;;;1.25;1.13;;;;;;;;;;5018613;28;20014;-83
2023/12/05 04:45:22;;;;;;;2.47;1.73;;;;;;;;;;5018064;28;20018;-84
2023/12/05 04:47:48;;;;;;;3.42;1.55;;;;;;;;;;5012347;28;20025;-80
2023/12/05 04:50:14;;;;;;;2.50;1.73;;;;;;;;;;5027039;28;20010;-79
2023/12/05 04:52:41;;;;;;;1.20;1.10;;;;;;;;;;5027367;28;20064;-81
2023/12/05 04:55:07;;;;;;;1.88;1.70;;;;;;;;;;5027596;28;20146;-80
2023/12/05 04:57:34;;;;;;;2.20;1.63;;;;;;;;;;5016371;28;20014;-80
2023/12/05 05:00:00;;;;;;;1.70;1.60;;;;;;;;;;5024127;28;20109;-83
2023/12/05 05:02:26;;;;;;;2.80;1.60;;;;;;;;;;5020060;28;20026;-83
2023/12/05 05:04:52;;;;;;;1.67;1.58;;;;;;;;;;5012641;28;20041;-83
2023/12/05 05:07:18;;;;;;;2.15;1.70;;;;;;;;;;5010235;28;20030;-83
2023/12/05 05:09:44;;;;;;;2.13;1.85;;;;;;;;;;5012983;28;20164;-84
2023/12/05 05:12:10;;;;;;;1.77;1.50;;;;;;;;;;5010448;28;20148;-83
2023/12/05 05:14:36;;;;;;;2.25;1.92;;;;;;;;;;5017967;28;20026;-83
2023/12/05 05:17:04;;;;;;;2.78;1.85;;;;;;;;;;5019454;28;20446;-83
2023/12/05 05:19:30;;;;;;;1.63;1.40;;;;;;;;;;5020325;28;20033;-82
2023/12/05 05:21:57;;;;;;;1.90;1.70;;;;;;;;;;5014037;28;20049;-83
2023/12/05 05:24:23;;;;;;;1.58;1.35;;;;;;;;;;5019992;28;20027;-82
2023/12/05 05:26:49;;;;;;;1.40;1.30;;;;;;;;;;5024329;28;20025;-83
2023/12/05 05:29:15;;;;;;;2.53;1.58;;;;;;;;;;5033279;28;20021;-83
2023/12/05 05:31:41;;;;;;;1.40;1.20;;;;;;;;;;5022249;28;20029;-82
2023/12/05 05:34:08;;;;;;;2.05;1.20;;;;;;;;;;5025159;28;20125;-82
2023/12/05 05:36:34;;;;;;;2.05;1.20;;;;;;;;;;5036272;28;20018;-82
2023/12/05 05:39:00;;;;;;;1.02;0.98;;;;;;;;;;5024695;28;20041;-83
2023/12/05 05:41:26;;;;;;;2.10;1.40;;;;;;;;;;5038228;28;20017;-82
2023/12/05 05:43:53;;;;;;;1.35;0.98;;;;;;;;;;5041593;28;20022;-82
2023/12/05 05:46:19;;;;;;;1.15;1.02;;;;;;;;;;5040079;28;20028;-82
2023/12/05 05:48:45;;;;;;;1.98;1.27;;;;;;;;;;5035634;28;20033;-83
2023/12/05 05:51:11;;;;;;;3.33;1.00;;;;;;;;;;5034487;28;20037;-83
2023/12/05 05:53:37;;;;;;;1.80;1.30;;;;;;;;;;5023313;28;20026;-83
2023/12/05 05:56:03;;;;;;;2.50;1.30;;;;;;;;;;5036309;28;20021;-83
2023/12/05 05:58:30;;;;;;;1.20;1.00;;;;;;;;;;5045123;28;20032;-81
2023/12/05 06:00:56;;;;;;;1.10;1.00;;;;;;;;;;5035251;28;20026;-83
2023/12/05 06:03:23;;;;;;;1.05;0.95;;;;;;;;;;5034519;28;20045;-83
2023/12/05 06:05:49;;;;;;;1.65;1.15;;;;;;;;;;5042310;28;20037;-83
2023/12/05 06:08:15;;;;;;;1.27;1.08;;;;;;;;;;5026878;28;20030;-83
2023/12/05 06:10:42;;;;;;;0.90;0.85;;;;;;;;;;5031046;28;20053;-83
2023/12/05 06:13:08;;;;;;;0.60;0.60;;;;;;;;;;5010580;28;20074;-83
2023/12/05 06:15:34;;;;;;;1.35;1.15;;;;;;;;;;5005795;28;20616;-82
2023/12/05 06:18:00;;;;;;;0.85;0.85;;;;;;;;;;5028081;28;20096;-82
2023/12/05 06:20:26;;;;;;;0.60;0.57;;;;;;;;;;5024136;28;20072;-83
2023/12/05 06:22:53;;;;;;;1.35;0.70;;;;;;;;;;5018147;28;20382;-84
2023/12/05 06:25:19;;;;;;;0.75;0.73;;;;;;;;;;5020422;28;20066;-82
2023/12/05 06:27:46;;;;;;;1.55;0.52;;;;;;;;;;5014756;28;20029;-82
2023/12/05 06:30:12;;;;;;;1.05;0.70;;;;;;;;;;5025886;28;20045;-82
2023/12/05 06:32:38;;;;;;;1.15;0.70;;;;;;;;;;5014180;28;20482;-83
2023/12/05 06:35:04;;;;;;;1.10;0.68;;;;;;;;;;5017274;28;20033;-83
2023/12/05 06:37:31;;;;;;;0.90;0.60;;;;;;;;;;5012978;28;20144;-83
2023/12/05 06:39:57;;;;;;;1.23;0.80;;;;;;;;;;5013539;28;20136;-82
2023/12/05 06:42:23;;;;;;;0.75;0.57;;;;;;;;;;5015676;28;20030;-82
2023/12/05 06:44:50;;;;;;;1.10;0.70;;;;;;;;;;5020110;28;20026;-82
2023/12/05 06:47:17;;;;;;;0.98;0.70;;;;;;;;;;5011141;28;20022;-82
2023/12/05 06:49:43;;;;;;;0.82;0.80;;;;;;;;;;5016380;28;20072;-83
2023/12/05 06:52:11;;;;;;;0.68;0.50;;;;;;;;;;5026892;28;20028;-83
2023/12/05 06:54:37;;;;;;;1.05;0.70;;;;;;;;;;5024367;28;20022;-83
2023/12/05 06:57:04;;;;;;;0.70;0.55;;;;;;;;;;5018346;28;20026;-82
2023/12/05 06:59:30;;;;;;;0.93;0.73;;;;;;;;;;5037694;28;20025;-81
2023/12/05 07:01:56;;;;;;;0.43;0.40;;;;;;;;;;5020663;28;20018;-83
2023/12/05 07:04:22;;;;;;;1.17;0.50;;;;;;;;;;5020164;28;20022;-82
2023/12/05 07:06:48;;;;;;;0.70;0.47;;;;;;;;;;5034092;28;20125;-82
2023/12/05 07:09:14;;;;;;;0.60;0.50;;;;;;;;;;5002287;28;20026;-82
2023/12/05 07:11:40;;;;;;;0.50;0.50;;;;;;;;;;5012414;28;20041;-82
2023/12/05 07:14:08;;;;;;;0.70;0.50;;;;;;;;;;5019229;28;20035;-82
2023/12/05 07:16:36;;;;;;;0.50;0.50;;;;;;;;;;5031943;28;20022;-83
2023/12/05 07:19:02;;;;;;;1.42;0.60;;;;;;;;;;5033335;28;20089;-83
2023/12/05 07:21:28;;;;;;;0.63;0.45;;;;;;;;;;5018781;28;20037;-83
2023/12/05 07:23:54;;;;;;;0.50;0.50;;;;;;;;;;5018875;28;20052;-83
2023/12/05 07:26:20;;;;;;;0.50;0.50;;;;;;;;;;5013527;28;20018;-82
2023/12/05 07:28:47;;;;;;;0.70;0.47;;;;;;;;;;4999538;28;20474;-83
2023/12/05 07:31:13;;;;;;;1.20;0.68;;;;;;;;;;5009271;28;20030;-83
2023/12/05 07:33:39;;;;;;;0.50;0.50;;;;;;;;;;5021034;28;20049;-83
2023/12/05 07:36:05;;;;;;;1.02;0.50;;;;;;;;;;5023771;28;20372;-82
2023/12/05 07:38:32;;;;;;;0.50;0.50;;;;;;;;;;5028299;28;20072;-81
2023/12/05 07:40:58;;;;;;;0.70;0.70;;;;;;;;;;5020002;28;20015;-82
2023/12/05 07:43:24;;;;;;;0.52;0.52;;;;;;;;;;5025659;28;20425;-83
2023/12/05 07:45:50;;;;;;;0.43;0.43;;;;;;;;;;5021517;28;20038;-82
2023/12/05 07:48:16;;;;;;;0.52;0.52;;;;;;;;;;5018499;28;20048;-83
2023/12/05 07:50:43;;;;;;;0.40;0.40;;;;;;;;;;5016927;28;20026;-83
2023/12/05 07:53:10;;;;;;;0.60;0.50;;;;;;;;;;5029936;28;20032;-83
2023/12/05 07:55:36;;;;;;;0.52;0.40;;;;;;;;;;5037187;28;20067;-83
2023/12/05 07:58:02;;;;;;;0.88;0.40;;;;;;;;;;5037008;28;20508;-83
2023/12/05 08:00:28;;;;;;;0.77;0.55;;;;;;;;;;5026478;28;20117;-83
2023/12/05 08:02:54;;;;;;;0.60;0.60;;;;;;;;;;5022054;28;20333;-82
2023/12/05 08:05:20;;;;;;;0.77;0.57;;;;;;;;;;5046137;28;20020;-81
2023/12/05 08:07:46;;;;;;;0.60;0.50;;;;;;;;;;5033171;28;20053;-82
2023/12/05 08:10:13;;;;;;;0.38;0.20;;;;;;;;;;5025173;28;20102;-83
2023/12/05 08:12:39;;;;;;;0.43;0.43;;;;;;;;;;5015838;28;20129;-83
2023/12/05 08:15:05;;;;;;;0.63;0.43;;;;;;;;;;5024440;28;20038;-82
2023/12/05 08:17:31;;;;;;;0.40;0.40;;;;;;;;;;5035030;28;20034;-83
2023/12/05 08:19:57;;;;;;;0.50;0.50;;;;;;;;;;5028572;28;20057;-82
2023/12/05 08:22:25;;;;;;;0.45;0.40;;;;;;;;;;5025635;28;20349;-82
2023/12/05 08:24:51;;;;;;;0.30;0.30;;;;;;;;;;5015325;28;20444;-82
2023/12/05 08:27:17;;;;;;;0.52;0.47;;;;;;;;;;5016191;28;20034;-82
2023/12/05 08:29:43;;;;;;;0.40;0.40;;;;;;;;;;5018165;28;20031;-81
2023/12/05 08:32:10;;;;;;;0.70;0.50;;;;;;;;;;5018295;28;20057;-82
2023/12/05 08:34:36;;;;;;;0.40;0.40;;;;;;;;;;5025592;28;20052;-82
2023/12/05 08:37:02;;;;;;;0.82;0.57;;;;;;;;;;5025152;28;20022;-84
2023/12/05 08:39:32;;;;;;;0.68;0.60;;;;;;;;;;5015348;28;20049;-83
2023/12/05 08:41:59;;;;;;;0.70;0.40;;;;;;;;;;5023744;28;20152;-84
2023/12/05 08:44:25;;;;;;;0.68;0.50;;;;;;;;;;5014506;28;20022;-83
2023/12/05 08:46:51;;;;;;;0.95;0.60;;;;;;;;;;5011832;28;20053;-82
2023/12/05 08:49:18;;;;;;;0.63;0.60;;;;;;;;;;5036069;28;20033;-82
2023/12/05 08:51:44;;;;;;;2.60;0.73;;;;;;;;;;5013870;28;20041;-82
2023/12/05 08:54:10;;;;;;;4.60;1.30;;;;;;;;;;5030093;28;20070;-83
2023/12/05 08:56:36;;;;;;;2.83;1.38;;;;;;;;;;5022272;28;20026;-83
2023/12/05 08:59:02;;;;;;;3.95;1.02;;;;;;;;;;5017503;28;20093;-83
2023/12/05 09:01:28;;;;;;;0.93;0.90;;;;;;;;;;5017804;28;20027;-83
2023/12/05 09:03:55;;;;;;;1.88;1.05;;;;;;;;;;5035213;28;20063;-82
2023/12/05 09:06:21;;;;;;;1.10;0.85;;;;;;;;;;5036545;28;20030;-83
2023/12/05 09:08:47;;;;;;;0.75;0.70;;;;;;;;;;5032160;28;20401;-83
2023/12/05 09:11:13;;;;;;;3.90;1.13;;;;;;;;;;5016890;28;20030;-83
2023/12/05 09:13:39;;;;;;;0.80;0.68;;;;;;;;;;5015320;28;20094;-83
2023/12/05 09:16:06;;;;;;;1.70;0.98;;;;;;;;;;5039466;28;20032;-84
2023/12/05 09:18:32;;;;;;;0.70;0.70;;;;;;;;;;5020178;28;20060;-84
2023/12/05 09:20:58;;;;;;;1.77;1.33;;;;;;;;;;5009364;28;20094;-84
2023/12/05 09:23:24;;;;;;;1.10;0.85;;;;;;;;;;5022405;28;20076;-84
2023/12/05 09:25:50;;;;;;;0.70;0.63;;;;;;;;;;5013330;28;20041;-83
2023/12/05 09:28:16;;;;;;;1.25;0.90;;;;;;;;;;5021458;28;20021;-85
2023/12/05 09:30:42;;;;;;;1.83;1.10;;;;;;;;;;5027511;28;20021;-84
2023/12/05 09:33:08;;;;;;;2.38;1.20;;;;;;;;;;5035124;28;20070;-82
2023/12/05 09:35:34;;;;;;;1.25;1.00;;;;;;;;;;5028814;28;20030;-82
2023/12/05 09:38:02;;;;;;;1.23;0.90;;;;;;;;;;5036667;28;20037;-83
2023/12/05 09:40:31;;;;;;;1.63;1.20;;;;;;;;;;5040233;28;20041;-82
2023/12/05 09:42:59;;;;;;;2.05;1.50;;;;;;;;;;5030579;28;20065;-83
2023/12/05 09:45:28;;;;;;;1.65;1.55;;;;;;;;;;5032865;28;20018;-82
2023/12/05 09:47:59;;;;;;;2.53;1.70;;;;;;;;;;5012883;28;20096;-83
2023/12/05 09:50:25;;;;;;;3.08;1.80;;;;;;;;;;5046051;28;20029;-82
2023/12/05 09:52:51;;;;;;;2.75;2.20;;;;;;;;;;5042524;28;20030;-82
2023/12/05 09:55:17;;;;;;;2.22;1.85;;;;;;;;;;5034681;28;20109;-82
2023/12/05 09:57:44;;;;;;;2.80;1.67;;;;;;;;;;5012663;28;20026;-83
2023/12/05 10:00:10;;;;;;;2.72;1.83;;;;;;;;;;5031829;28;20026;-83
2023/12/05 10:02:37;;;;;;;1.70;1.35;;;;;;;;;;5029517;28;20077;-83
2023/12/05 10:05:06;;;;;;;1.98;1.50;;;;;;;;;;5012387;28;20078;-84
2023/12/05 10:07:32;;;;;;;2.03;1.40;;;;;;;;;;5019172;28;20318;-83
2023/12/05 10:09:59;;;;;;;1.95;1.48;;;;;;;;;;5019194;28;20029;-83
2023/12/05 10:12:25;;;;;;;2.08;1.20;;;;;;;;;;5022876;28;20068;-83
2023/12/05 10:14:51;;;;;;;1.73;1.42;;;;;;;;;;5028237;28;20032;-83
2023/12/05 10:17:17;;;;;;;0.90;0.90;;;;;;;;;;5030944;28;20154;-83
2023/12/05 10:19:43;;;;;;;1.92;1.42;;;;;;;;;;5019450;28;20507;-83
2023/12/05 10:22:09;;;;;;;1.92;1.52;;;;;;;;;;5021709;28;20459;-82
2023/12/05 10:24:42;;;;;;;2.50;1.73;;;;;;;;;;5020397;28;20029;-82
2023/12/05 10:27:09;;;;;;;2.13;1.50;;;;;;;;;;5007881;28;20030;-83
2023/12/05 10:29:39;;;;;;;2.53;1.42;;;;;;;;;;5024635;28;20037;-83
2023/12/05 10:32:06;;;;;;;1.17;1.08;;;;;;;;;;5029254;28;20071;-82
2023/12/05 10:34:49;;;;;;;2.47;1.40;;;;;;;;;;5045148;28;20084;-81
2023/12/05 10:37:16;;;;;;;;;;;;;;;;;;5025467;28;20096;-82
2023/12/05 10:39:42;;;;;;;1.42;1.33;;;;;;;;;;5011376;28;19916;-83
2023/12/05 10:42:09;;;;;;;1.10;0.88;;;;;;;;;;5017303;28;20076;-83
2023/12/05 10:44:38;;;;;;;1.52;1.20;;;;;;;;;;5012476;28;20049;-82
2023/12/05 10:47:05;;;;;;;1.63;1.08;;;;;;;;;;5024936;28;20113;-81
2023/12/05 10:49:34;;;;;;;1.35;1.10;;;;;;;;;;5014229;28;20041;-82
2023/12/05 10:52:02;;;;;;;1.60;1.15;;;;;;;;;;5023637;28;20515;-82
2023/12/05 10:54:28;;;;;;;1.38;1.25;;;;;;;;;;5012992;28;20061;-84
2023/12/05 10:56:57;;;;;;;0.90;0.90;;;;;;;;;;5015142;28;20026;-82
2023/12/05 10:59:28;;;;;;;0.85;0.85;;;;;;;;;;5020885;28;20029;-83
2023/12/05 11:01:57;;;;;;;1.08;1.00;;;;;;;;;;5016040;28;20030;-83
2023/12/05 11:04:26;;;;;;;1.65;1.10;;;;;;;;;;5021147;28;20092;-83
2023/12/05 11:06:53;;;;;;;1.77;1.27;;;;;;;;;;5020356;28;20120;-83
2023/12/05 11:09:19;;;;;;;1.25;1.10;;;;;;;;;;5018504;28;20105;-82
2023/12/05 11:11:51;;;;;;;0.93;0.88;;;;;;;;;;5014854;28;20034;-82
2023/12/05 11:14:19;;;;;;;1.27;1.00;;;;;;;;;;5015363;28;20081;-83
2023/12/05 11:16:56;;;;;;;1.83;1.23;;;;;;;;;;5030624;28;20030;-82
2023/12/05 11:19:34;;;;;;;1.50;1.35;;;;;;;;;;5023822;28;20026;-82
2023/12/05 11:22:19;;;;;;;1.50;1.23;;;;;;;;;;5027152;28;20042;-82
2023/12/05 11:24:56;;;;;;;1.50;1.35;;;;;;;;;;5020713;28;20025;-82
2023/12/05 11:27:29;;;;;;;1.83;1.48;;;;;;;;;;5020634;28;20073;-82
2023/12/05 11:29:55;;;;;;;;;;;;;;;;;;5005221;28;20144;-82
2023/12/05 11:32:40;;;;;;;1.40;1.25;;;;;;;;;;5017672;28;19921;-82
2023/12/05 11:35:09;;;;;;;1.90;1.35;;;;;;;;;;5013584;28;20038;-81
2023/12/05 11:37:53;;;;;;;2.70;1.50;;;;;;;;;;5001632;28;20035;-82
2023/12/05 11:40:20;;;;;;;3.03;1.52;;;;;;;;;;5001455;28;20018;-83
2023/12/05 11:43:04;;;;;;;2.60;1.50;;;;;;;;;;5013684;28;20022;-83
2023/12/05 11:45:30;;;;;;;1.85;1.45;;;;;;;;;;5005124;28;20014;-82
2023/12/05 11:47:58;;;;;;;1.42;1.02;;;;;;;;;;5023192;28;20018;-82
2023/12/05 11:50:24;;;;;;;1.88;1.10;;;;;;;;;;5021669;28;20041;-82
2023/12/05 11:52:51;;;;;;;1.20;0.90;;;;;;;;;;5009548;28;20121;-81
2023/12/05 11:55:18;;;;;;;1.08;0.90;;;;;;;;;;5034177;28;20037;-82
2023/12/05 11:57:44;;;;;;;1.00;1.00;;;;;;;;;;5023718;28;20036;-83
2023/12/05 12:00:11;;;;;;;1.20;0.98;;;;;;;;;;5023271;28;20026;-83
2023/12/05 12:02:37;;;;;;;1.40;0.90;;;;;;;;;;5018628;28;20026;-83
2023/12/05 12:05:09;;;;;;;1.20;1.05;;;;;;;;;;5039395;28;20026;-83
2023/12/05 12:07:52;;;;;;;1.10;1.00;;;;;;;;;;5024930;28;20148;-83
2023/12/05 12:10:18;;;;;;;2.25;1.30;;;;;;;;;;5025605;28;20121;-82
2023/12/05 12:12:45;;;;;;;0.65;0.65;;;;;;;;;;5014636;28;20208;-83
2023/12/05 12:15:12;;;;;;;1.33;0.85;;;;;;;;;;5022618;28;20014;-83
2023/12/05 12:17:41;;;;;;;1.10;0.98;;;;;;;;;;5019494;28;20037;-82
2023/12/05 12:20:08;;;;;;;0.80;0.80;;;;;;;;;;5022936;28;20025;-83
2023/12/05 12:22:35;;;;;;;1.00;0.90;;;;;;;;;;5029390;28;20175;-83
2023/12/05 12:25:05;;;;;;;1.70;1.10;;;;;;;;;;5016535;28;20033;-83
2023/12/05 12:27:35;;;;;;;2.45;1.15;;;;;;;;;;5018439;28;20022;-83
2023/12/05 12:30:03;;;;;;;2.40;1.48;;;;;;;;;;5035076;28;20031;-82
2023/12/05 12:32:29;;;;;;;1.58;1.13;;;;;;;;;;5031631;28;20026;-83
2023/12/05 12:34:55;;;;;;;1.50;1.05;;;;;;;;;;5031884;28;20032;-83
2023/12/05 12:37:22;;;;;;;1.10;1.00;;;;;;;;;;5034911;28;20032;-83
2023/12/05 12:39:50;;;;;;;1.58;1.00;;;;;;;;;;5023900;28;20078;-83
2023/12/05 12:42:17;;;;;;;2.00;1.40;;;;;;;;;;5026300;28;20020;-84
2023/12/05 12:44:43;;;;;;;2.47;1.27;;;;;;;;;;5020515;28;20042;-83
2023/12/05 12:47:09;;;;;;;1.60;1.10;;;;;;;;;;5026750;28;20392;-83
2023/12/05 12:49:36;;;;;;;1.65;1.40;;;;;;;;;;5026988;28;20032;-82
2023/12/05 12:52:03;;;;;;;2.10;1.13;;;;;;;;;;5013397;28;20410;-83
2023/12/05 12:54:29;;;;;;;3.38;1.80;;;;;;;;;;5023176;28;20026;-84
2023/12/05 12:56:55;;;;;;;2.70;1.42;;;;;;;;;;5017369;28;20392;-83
2023/12/05 12:59:22;;;;;;;2.10;1.30;;;;;;;;;;5008825;28;20022;-82
2023/12/05 13:01:50;;;;;;;2.72;1.30;;;;;;;;;;5018109;28;20018;-84
2023/12/05 13:04:16;;;;;;;1.17;0.80;;;;;;;;;;5024254;28;20018;-82
2023/12/05 13:06:46;;;;;;;1.70;1.20;;;;;;;;;;5034740;28;20026;-82
2023/12/05 13:09:12;;;;;;;1.65;0.85;;;;;;;;;;5027980;28;20045;-83
2023/12/05 13:11:38;;;;;;;1.80;1.05;;;;;;;;;;5026746;28;20060;-83
2023/12/05 13:14:10;;;;;;;1.48;1.38;;;;;;;;;;5003010;28;20026;-83
2023/12/05 13:16:39;;;;;;;1.10;1.00;;;;;;;;;;5044318;28;20506;-82
2023/12/05 13:19:06;;;;;;;1.50;0.85;;;;;;;;;;5029657;28;20034;-82
2023/12/05 13:21:33;;;;;;;1.08;0.85;;;;;;;;;;5026064;28;20030;-82
2023/12/05 13:24:00;;;;;;;1.08;0.98;;;;;;;;;;5037293;28;20026;-83
2023/12/05 13:26:26;;;;;;;1.20;1.00;;;;;;;;;;5045977;28;20029;-83
2023/12/05 13:28:52;;;;;;;0.98;0.88;;;;;;;;;;5037204;28;20022;-82
2023/12/05 13:31:18;;;;;;;1.30;1.00;;;;;;;;;;5038136;28;20041;-82
2023/12/05 13:33:44;;;;;;;1.40;1.08;;;;;;;;;;5026343;28;20030;-83
2023/12/05 13:36:11;;;;;;;1.23;1.00;;;;;;;;;;5042324;28;20049;-82
2023/12/05 13:38:40;;;;;;;1.83;0.95;;;;;;;;;;5054518;28;20017;-82
2023/12/05 13:41:06;;;;;;;1.00;0.90;;;;;;;;;;5051135;28;20014;-81
2023/12/05 13:43:32;;;;;;;1.23;1.13;;;;;;;;;;5039409;28;20018;-82
2023/12/05 13:45:58;;;;;;;1.08;0.98;;;;;;;;;;5019773;28;20061;-83
2023/12/05 13:48:24;;;;;;;1.70;0.82;;;;;;;;;;5031276;28;20038;-82
2023/12/05 13:50:51;;;;;;;1.77;1.00;;;;;;;;;;5030599;28;20026;-83
2023/12/05 13:53:17;;;;;;;1.13;0.60;;;;;;;;;;5029665;28;20029;-83
2023/12/05 13:55:44;;;;;;;0.80;0.80;;;;;;;;;;5031583;28;20141;-83
2023/12/05 13:58:10;;;;;;;1.67;1.08;;;;;;;;;;5019773;28;20029;-82
2023/12/05 14:00:37;;;;;;;0.80;0.68;;;;;;;;;;5023605;28;20499;-82
2023/12/05 14:03:03;;;;;;;0.98;0.85;;;;;;;;;;5018076;28;20019;-83
2023/12/05 14:05:30;;;;;;;0.80;0.73;;;;;;;;;;5032730;28;20097;-82
2023/12/05 14:07:56;;;;;;;1.08;0.82;;;;;;;;;;5027559;28;20037;-83
2023/12/05 14:10:22;;;;;;;0.80;0.60;;;;;;;;;;5032838;28;20014;-84
2023/12/05 14:12:49;;;;;;;0.82;0.70;;;;;;;;;;5025549;28;20106;-82
2023/12/05 14:15:15;;;;;;;0.60;0.60;;;;;;;;;;5040064;28;20093;-82
2023/12/05 14:17:41;;;;;;;1.25;0.70;;;;;;;;;;5025707;28;20476;-82
2023/12/05 14:20:10;;;;;;;1.15;0.88;;;;;;;;;;5023464;28;20095;-82
2023/12/05 14:22:37;;;;;;;0.75;0.75;;;;;;;;;;5013166;28;20026;-82
2023/12/05 14:25:06;;;;;;;1.92;1.08;;;;;;;;;;5007881;28;20018;-82
2023/12/05 14:27:33;;;;;;;1.17;1.00;;;;;;;;;;5023788;28;20026;-83
2023/12/05 14:29:59;;;;;;;2.70;1.50;;;;;;;;;;5023146;28;20026;-83
2023/12/05 14:32:25;;;;;;;2.47;1.40;;;;;;;;;;5023971;28;20457;-83
2023/12/05 14:34:51;;;;;;;0.85;0.85;;;;;;;;;;5040519;28;20036;-83
2023/12/05 14:37:18;;;;;;;1.38;1.17;;;;;;;;;;5037166;28;20022;-83
2023/12/05 14:39:46;;;;;;;0.70;0.70;;;;;;;;;;5036045;28;20017;-82
2023/12/05 14:42:13;;;;;;;1.00;0.90;;;;;;;;;;5029482;28;20069;-81